sensor_id;sensor_type;location;lat;lon;timestamp;pressure;altitude;pressure_sealevel;temperature;humidity
76201;BME280;64981;52.930;9.266;2023-02-11T00:02:23;102763.81;;;6.15;74.07
76201;BME280;64981;52.930;9.266;2023-02-11T00:04:52;102769.19;;;6.29;73.42
76201;BME280;64981;52.930;9.266;2023-02-11T00:07:17;102764.44;;;6.36;73.05
76201;BME280;64981;52.930;9.266;2023-02-11T00:09:43;102771.69;;;6.31;73.52
76201;BME280;64981;52.930;9.266;2023-02-11T00:12:08;102767.72;;;6.24;74.08
76201;BME280;64981;52.930;9.266;2023-02-11T00:14:34;102769.56;;;6.06;74.46
76201;BME280;64981;52.930;9.266;2023-02-11T00:17:00;102760.28;;;6.16;73.97
76201;BME280;64981;52.930;9.266;2023-02-11T00:19:25;102760.13;;;6.19;74.32
76201;BME280;64981;52.930;9.266;2023-02-11T00:21:51;102751.16;;;6.23;73.88
76201;BME280;64981;52.930;9.266;2023-02-11T00:24:16;102764.16;;;6.40;73.28
76201;BME280;64981;52.930;9.266;2023-02-11T00:26:42;102751.97;;;6.39;73.31
76201;BME280;64981;52.930;9.266;2023-02-11T00:29:08;102756.22;;;6.42;73.24
76201;BME280;64981;52.930;9.266;2023-02-11T00:31:34;102754.44;;;6.27;73.79
76201;BME280;64981;52.930;9.266;2023-02-11T00:33:59;102750.13;;;6.41;73.28
76201;BME280;64981;52.930;9.266;2023-02-11T00:36:27;102750.97;;;6.42;73.17
76201;BME280;64981;52.930;9.266;2023-02-11T00:38:54;102746.81;;;6.38;73.34
76201;BME280;64981;52.930;9.266;2023-02-11T00:41:21;102737.84;;;6.42;73.05
76201;BME280;64981;52.930;9.266;2023-02-11T00:43:47;102743.59;;;6.33;73.63
76201;BME280;64981;52.930;9.266;2023-02-11T00:46:13;102739.00;;;6.52;72.61
76201;BME280;64981;52.930;9.266;2023-02-11T00:48:39;102744.69;;;6.44;73.00
76201;BME280;64981;52.930;9.266;2023-02-11T00:51:06;102738.25;;;6.50;72.77
76201;BME280;64981;52.930;9.266;2023-02-11T00:53:32;102733.50;;;6.56;72.85
76201;BME280;64981;52.930;9.266;2023-02-11T00:55:58;102719.19;;;6.46;72.97
76201;BME280;64981;52.930;9.266;2023-02-11T00:58:26;102714.00;;;6.61;72.39
76201;BME280;64981;52.930;9.266;2023-02-11T01:00:53;102714.25;;;6.56;72.34
76201;BME280;64981;52.930;9.266;2023-02-11T01:03:18;102705.81;;;6.51;72.64
76201;BME280;64981;52.930;9.266;2023-02-11T01:05:44;102714.78;;;6.47;73.01
76201;BME280;64981;52.930;9.266;2023-02-11T01:08:10;102720.00;;;6.63;72.26
76201;BME280;64981;52.930;9.266;2023-02-11T01:10:35;102701.91;;;6.58;72.41
76201;BME280;64981;52.930;9.266;2023-02-11T01:13:01;102697.31;;;6.62;72.16
76201;BME280;64981;52.930;9.266;2023-02-11T01:15:27;102694.78;;;6.60;72.16
76201;BME280;64981;52.930;9.266;2023-02-11T01:17:53;102686.31;;;6.55;72.61
76201;BME280;64981;52.930;9.266;2023-02-11T01:20:22;102699.53;;;6.53;72.55
76201;BME280;64981;52.930;9.266;2023-02-11T01:22:48;102686.97;;;6.58;72.59
76201;BME280;64981;52.930;9.266;2023-02-11T01:25:14;102686.81;;;6.62;72.26
76201;BME280;64981;52.930;9.266;2023-02-11T01:27:40;102680.84;;;6.44;72.95
76201;BME280;64981;52.930;9.266;2023-02-11T01:30:07;102679.56;;;6.51;72.78
76201;BME280;64981;52.930;9.266;2023-02-11T01:32:34;102684.47;;;6.57;72.73
76201;BME280;64981;52.930;9.266;2023-02-11T01:35:00;102688.13;;;6.69;72.23
76201;BME280;64981;52.930;9.266;2023-02-11T01:37:26;102684.09;;;6.63;72.57
76201;BME280;64981;52.930;9.266;2023-02-11T01:39:51;102681.28;;;6.66;72.67
76201;BME280;64981;52.930;9.266;2023-02-11T01:42:20;102681.16;;;6.53;72.81
76201;BME280;64981;52.930;9.266;2023-02-11T01:44:49;102671.19;;;6.44;73.32
76201;BME280;64981;52.930;9.266;2023-02-11T01:47:17;102671.81;;;6.64;72.35
76201;BME280;64981;52.930;9.266;2023-02-11T01:49:48;102672.50;;;6.67;72.38
76201;BME280;64981;52.930;9.266;2023-02-11T01:52:25;102675.00;;;6.84;72.12
76201;BME280;64981;52.930;9.266;2023-02-11T01:54:56;102677.38;;;6.73;72.47
76201;BME280;64981;52.930;9.266;2023-02-11T01:57:43;102683.31;;;6.77;72.44
76201;BME280;64981;52.930;9.266;2023-02-11T02:00:19;102679.56;;;6.81;72.27
76201;BME280;64981;52.930;9.266;2023-02-11T02:03:04;102683.56;;;6.72;72.89
76201;BME280;64981;52.930;9.266;2023-02-11T02:05:51;102676.47;;;6.58;73.18
76201;BME280;64981;52.930;9.266;2023-02-11T02:08:39;102675.94;;;6.68;72.77
76201;BME280;64981;52.930;9.266;2023-02-11T02:11:07;102673.13;;;6.71;72.86
76201;BME280;64981;52.930;9.266;2023-02-11T02:13:34;102673.56;;;6.79;72.63
76201;BME280;64981;52.930;9.266;2023-02-11T02:16:06;102662.03;;;6.81;72.74
76201;BME280;64981;52.930;9.266;2023-02-11T02:21:52;102641.34;;;6.61;73.23
76201;BME280;64981;52.930;9.266;2023-02-11T02:27:54;102651.00;;;6.75;72.85
76201;BME280;64981;52.930;9.266;2023-02-11T02:30:48;102643.84;;;6.78;73.04
76201;BME280;64981;52.930;9.266;2023-02-11T02:33:32;102645.53;;;6.93;72.41
76201;BME280;64981;52.930;9.266;2023-02-11T02:36:13;102637.66;;;6.79;72.87
76201;BME280;64981;52.930;9.266;2023-02-11T02:38:51;102628.84;;;6.65;73.33
76201;BME280;64981;52.930;9.266;2023-02-11T02:41:24;102627.16;;;6.79;73.07
76201;BME280;64981;52.930;9.266;2023-02-11T02:43:52;102633.38;;;6.92;72.57
76201;BME280;64981;52.930;9.266;2023-02-11T02:46:23;102617.88;;;6.88;72.56
76201;BME280;64981;52.930;9.266;2023-02-11T02:48:50;102623.56;;;6.80;72.92
76201;BME280;64981;52.930;9.266;2023-02-11T02:51:36;102617.03;;;6.87;72.73
76201;BME280;64981;52.930;9.266;2023-02-11T03:03:21;102603.63;;;6.92;72.71
76201;BME280;64981;52.930;9.266;2023-02-11T03:06:12;102599.75;;;6.83;72.99
76201;BME280;64981;52.930;9.266;2023-02-11T03:08:48;102601.75;;;6.80;73.15
76201;BME280;64981;52.930;9.266;2023-02-11T03:11:19;102597.97;;;6.84;73.18
76201;BME280;64981;52.930;9.266;2023-02-11T03:13:48;102593.19;;;6.90;72.69
76201;BME280;64981;52.930;9.266;2023-02-11T03:16:20;102597.34;;;6.94;72.62
76201;BME280;64981;52.930;9.266;2023-02-11T03:18:58;102603.50;;;6.93;72.91
76201;BME280;64981;52.930;9.266;2023-02-11T03:21:25;102604.47;;;6.92;72.81
76201;BME280;64981;52.930;9.266;2023-02-11T03:23:56;102608.78;;;7.07;72.48
76201;BME280;64981;52.930;9.266;2023-02-11T03:26:34;102623.16;;;7.02;72.57
76201;BME280;64981;52.930;9.266;2023-02-11T03:29:34;102598.66;;;7.01;72.36
76201;BME280;64981;52.930;9.266;2023-02-11T03:32:25;102610.00;;;7.02;72.69
76201;BME280;64981;52.930;9.266;2023-02-11T03:35:09;102602.19;;;7.29;71.76
76201;BME280;64981;52.930;9.266;2023-02-11T03:37:44;102614.59;;;7.13;72.32
76201;BME280;64981;52.930;9.266;2023-02-11T03:40:20;102608.69;;;7.09;72.41
76201;BME280;64981;52.930;9.266;2023-02-11T03:42:53;102619.47;;;7.04;72.58
76201;BME280;64981;52.930;9.266;2023-02-11T03:45:23;102602.47;;;6.96;72.83
76201;BME280;64981;52.930;9.266;2023-02-11T03:47:56;102605.28;;;6.93;73.17
76201;BME280;64981;52.930;9.266;2023-02-11T03:50:25;102603.63;;;6.92;73.32
76201;BME280;64981;52.930;9.266;2023-02-11T03:52:55;102604.56;;;6.91;73.45
76201;BME280;64981;52.930;9.266;2023-02-11T03:55:22;102605.31;;;7.07;72.82
76201;BME280;64981;52.930;9.266;2023-02-11T03:57:50;102599.78;;;6.97;73.17
76201;BME280;64981;52.930;9.266;2023-02-11T04:00:17;102589.34;;;6.82;73.69
76201;BME280;64981;52.930;9.266;2023-02-11T04:02:43;102597.34;;;6.94;73.48
76201;BME280;64981;52.930;9.266;2023-02-11T04:05:12;102596.22;;;6.98;73.30
76201;BME280;64981;52.930;9.266;2023-02-11T04:07:38;102591.31;;;7.06;73.08
76201;BME280;64981;52.930;9.266;2023-02-11T04:10:04;102593.59;;;6.98;73.14
76201;BME280;64981;52.930;9.266;2023-02-11T04:12:31;102600.81;;;6.95;73.37
76201;BME280;64981;52.930;9.266;2023-02-11T04:14:56;102615.16;;;6.89;73.92
76201;BME280;64981;52.930;9.266;2023-02-11T04:17:22;102608.03;;;6.91;73.82
76201;BME280;64981;52.930;9.266;2023-02-11T04:19:48;102608.59;;;7.10;73.23
76201;BME280;64981;52.930;9.266;2023-02-11T04:22:13;102584.00;;;6.97;73.34
76201;BME280;64981;52.930;9.266;2023-02-11T04:24:39;102608.97;;;7.04;73.43
76201;BME280;64981;52.930;9.266;2023-02-11T04:27:05;102609.16;;;7.01;73.65
76201;BME280;64981;52.930;9.266;2023-02-11T04:29:30;102596.09;;;7.00;73.68
76201;BME280;64981;52.930;9.266;2023-02-11T04:31:56;102607.28;;;7.18;72.96
76201;BME280;64981;52.930;9.266;2023-02-11T04:34:23;102607.28;;;6.89;74.14
76201;BME280;64981;52.930;9.266;2023-02-11T04:36:49;102607.66;;;6.97;74.32
76201;BME280;64981;52.930;9.266;2023-02-11T04:39:15;102612.72;;;7.00;74.01
76201;BME280;64981;52.930;9.266;2023-02-11T04:41:41;102594.50;;;6.97;74.15
76201;BME280;64981;52.930;9.266;2023-02-11T04:44:06;102592.06;;;6.80;74.77
76201;BME280;64981;52.930;9.266;2023-02-11T04:46:32;102585.97;;;6.94;74.56
76201;BME280;64981;52.930;9.266;2023-02-11T04:48:57;102601.91;;;6.77;75.15
76201;BME280;64981;52.930;9.266;2023-02-11T04:51:23;102605.13;;;7.10;73.90
76201;BME280;64981;52.930;9.266;2023-02-11T04:53:48;102601.84;;;7.06;74.17
76201;BME280;64981;52.930;9.266;2023-02-11T04:56:14;102602.13;;;7.02;74.40
76201;BME280;64981;52.930;9.266;2023-02-11T04:58:40;102597.03;;;6.99;74.25
76201;BME280;64981;52.930;9.266;2023-02-11T05:01:10;102600.59;;;7.12;74.11
76201;BME280;64981;52.930;9.266;2023-02-11T05:03:37;102584.84;;;7.12;74.01
76201;BME280;64981;52.930;9.266;2023-02-11T05:06:03;102591.25;;;7.08;73.94
76201;BME280;64981;52.930;9.266;2023-02-11T05:08:29;102598.34;;;7.06;74.15
76201;BME280;64981;52.930;9.266;2023-02-11T05:10:55;102599.09;;;7.22;73.90
76201;BME280;64981;52.930;9.266;2023-02-11T05:13:21;102604.81;;;7.15;74.23
76201;BME280;64981;52.930;9.266;2023-02-11T05:15:47;102591.97;;;7.24;73.71
76201;BME280;64981;52.930;9.266;2023-02-11T05:18:13;102586.72;;;7.10;74.10
76201;BME280;64981;52.930;9.266;2023-02-11T05:20:41;102586.81;;;6.94;74.91
76201;BME280;64981;52.930;9.266;2023-02-11T05:23:07;102582.41;;;7.09;74.49
76201;BME280;64981;52.930;9.266;2023-02-11T05:25:33;102583.53;;;7.19;74.19
76201;BME280;64981;52.930;9.266;2023-02-11T05:27:58;102560.91;;;7.17;74.26
76201;BME280;64981;52.930;9.266;2023-02-11T05:30:24;102580.81;;;7.21;74.17
76201;BME280;64981;52.930;9.266;2023-02-11T05:32:50;102580.34;;;7.14;74.24
76201;BME280;64981;52.930;9.266;2023-02-11T05:35:15;102581.84;;;7.04;74.64
76201;BME280;64981;52.930;9.266;2023-02-11T05:37:41;102589.63;;;7.20;74.13
76201;BME280;64981;52.930;9.266;2023-02-11T05:40:07;102579.38;;;7.15;74.29
76201;BME280;64981;52.930;9.266;2023-02-11T05:42:33;102586.72;;;7.10;74.92
76201;BME280;64981;52.930;9.266;2023-02-11T05:44:58;102582.41;;;7.09;74.74
76201;BME280;64981;52.930;9.266;2023-02-11T05:47:24;102586.63;;;7.11;74.92
76201;BME280;64981;52.930;9.266;2023-02-11T05:49:50;102584.56;;;7.17;74.47
76201;BME280;64981;52.930;9.266;2023-02-11T05:52:16;102594.16;;;7.18;74.69
76201;BME280;64981;52.930;9.266;2023-02-11T05:54:41;102591.28;;;7.35;73.91
76201;BME280;64981;52.930;9.266;2023-02-11T05:57:07;102598.25;;;7.36;73.90
76201;BME280;64981;52.930;9.266;2023-02-11T05:59:32;102595.25;;;7.28;74.51
76201;BME280;64981;52.930;9.266;2023-02-11T06:01:58;102596.75;;;7.32;74.27
76201;BME280;64981;52.930;9.266;2023-02-11T06:04:23;102591.28;;;7.35;74.22
76201;BME280;64981;52.930;9.266;2023-02-11T06:06:49;102586.59;;;7.40;73.92
76201;BME280;64981;52.930;9.266;2023-02-11T06:09:15;102584.91;;;7.25;74.51
76201;BME280;64981;52.930;9.266;2023-02-11T06:11:40;102584.25;;;7.35;74.21
76201;BME280;64981;52.930;9.266;2023-02-11T06:14:06;102592.63;;;7.42;73.89
76201;BME280;64981;52.930;9.266;2023-02-11T06:16:31;102597.69;;;7.31;74.35
76201;BME280;64981;52.930;9.266;2023-02-11T06:18:57;102598.06;;;7.39;74.26
76201;BME280;64981;52.930;9.266;2023-02-11T06:21:22;102588.47;;;7.38;74.24
76201;BME280;64981;52.930;9.266;2023-02-11T06:23:48;102596.91;;;7.43;74.13
76201;BME280;64981;52.930;9.266;2023-02-11T06:26:20;102596.16;;;7.41;74.27
76201;BME280;64981;52.930;9.266;2023-02-11T06:28:45;102600.69;;;7.39;74.39
76201;BME280;64981;52.930;9.266;2023-02-11T06:31:11;102599.72;;;7.40;74.35
76201;BME280;64981;52.930;9.266;2023-02-11T06:33:37;102596.19;;;7.27;74.98
76201;BME280;64981;52.930;9.266;2023-02-11T06:36:14;102596.56;;;7.35;74.49
76201;BME280;64981;52.930;9.266;2023-02-11T06:38:40;102598.81;;;7.41;74.49
76201;BME280;64981;52.930;9.266;2023-02-11T06:41:09;102598.91;;;7.39;74.69
76201;BME280;64981;52.930;9.266;2023-02-11T06:43:35;102597.31;;;7.23;75.63
76201;BME280;64981;52.930;9.266;2023-02-11T06:46:00;102592.16;;;7.35;75.12
76201;BME280;64981;52.930;9.266;2023-02-11T06:48:26;102595.44;;;7.39;75.10
76201;BME280;64981;52.930;9.266;2023-02-11T06:50:51;102587.94;;;7.19;75.96
76201;BME280;64981;52.930;9.266;2023-02-11T06:53:17;102599.19;;;7.35;75.64
76201;BME280;64981;52.930;9.266;2023-02-11T06:55:49;102593.66;;;7.39;75.51
76201;BME280;64981;52.930;9.266;2023-02-11T06:58:15;102605.19;;;7.37;75.59
76201;BME280;64981;52.930;9.266;2023-02-11T07:00:40;102604.25;;;7.38;75.72
76201;BME280;64981;52.930;9.266;2023-02-11T07:03:06;102605.69;;;7.29;76.00
76201;BME280;64981;52.930;9.266;2023-02-11T07:05:32;102609.38;;;7.53;75.23
76201;BME280;64981;52.930;9.266;2023-02-11T07:07:58;102605.38;;;7.34;76.13
76201;BME280;64981;52.930;9.266;2023-02-11T07:10:24;102612.66;;;7.57;75.41
76201;BME280;64981;52.930;9.266;2023-02-11T07:12:49;102596.63;;;7.47;75.90
76201;BME280;64981;52.930;9.266;2023-02-11T07:15:15;102591.97;;;7.38;76.23
76201;BME280;64981;52.930;9.266;2023-02-11T07:17:40;102595.59;;;7.50;75.84
76201;BME280;64981;52.930;9.266;2023-02-11T07:20:06;102597.47;;;7.48;76.25
76201;BME280;64981;52.930;9.266;2023-02-11T07:22:33;102596.78;;;7.58;76.03
76201;BME280;64981;52.930;9.266;2023-02-11T07:24:59;102597.44;;;7.62;75.65
76201;BME280;64981;52.930;9.266;2023-02-11T07:27:24;102601.88;;;7.47;76.27
76201;BME280;64981;52.930;9.266;2023-02-11T07:29:50;102597.28;;;7.37;76.86
76201;BME280;64981;52.930;9.266;2023-02-11T07:32:15;102588.41;;;7.39;76.82
76201;BME280;64981;52.930;9.266;2023-02-11T07:34:41;102588.19;;;7.42;76.48
76201;BME280;64981;52.930;9.266;2023-02-11T07:37:07;102607.22;;;7.46;76.49
76201;BME280;64981;52.930;9.266;2023-02-11T07:39:32;102604.88;;;7.55;76.21
76201;BME280;64981;52.930;9.266;2023-02-11T07:41:58;102604.13;;;7.53;76.49
76201;BME280;64981;52.930;9.266;2023-02-11T07:44:24;102611.47;;;7.48;76.62
76201;BME280;64981;52.930;9.266;2023-02-11T07:46:49;102615.13;;;7.46;76.78
76201;BME280;64981;52.930;9.266;2023-02-11T07:49:15;102628.72;;;7.52;76.35
76201;BME280;64981;52.930;9.266;2023-02-11T07:51:41;102637.13;;;7.45;76.73
76201;BME280;64981;52.930;9.266;2023-02-11T07:54:07;102642.84;;;7.37;77.13
76201;BME280;64981;52.930;9.266;2023-02-11T07:56:33;102640.41;;;7.34;77.08
76201;BME280;64981;52.930;9.266;2023-02-11T07:59:00;102635.78;;;7.38;77.02
76201;BME280;64981;52.930;9.266;2023-02-11T08:01:27;102643.69;;;7.38;77.01
76201;BME280;64981;52.930;9.266;2023-02-11T08:03:57;102644.34;;;7.41;76.94
76201;BME280;64981;52.930;9.266;2023-02-11T08:06:25;102641.88;;;7.52;76.58
76201;BME280;64981;52.930;9.266;2023-02-11T08:08:51;102648.75;;;7.41;76.89
76201;BME280;64981;52.930;9.266;2023-02-11T08:11:22;102643.03;;;7.48;76.28
76201;BME280;64981;52.930;9.266;2023-02-11T08:13:48;102648.84;;;7.53;76.61
76201;BME280;64981;52.930;9.266;2023-02-11T08:16:21;102646.00;;;7.56;76.43
76201;BME280;64981;52.930;9.266;2023-02-11T08:18:48;102646.97;;;7.41;77.04
76201;BME280;64981;52.930;9.266;2023-02-11T08:21:15;102656.16;;;7.48;77.07
76201;BME280;64981;52.930;9.266;2023-02-11T08:23:42;102664.03;;;7.62;76.58
76201;BME280;64981;52.930;9.266;2023-02-11T08:26:13;102670.88;;;7.65;76.24
76201;BME280;64981;52.930;9.266;2023-02-11T08:28:41;102669.56;;;7.72;76.40
76201;BME280;64981;52.930;9.266;2023-02-11T08:31:11;102671.00;;;7.63;76.90
76201;BME280;64981;52.930;9.266;2023-02-11T08:33:37;102672.56;;;7.66;76.66
76201;BME280;64981;52.930;9.266;2023-02-11T08:36:08;102690.13;;;7.65;76.86
76201;BME280;64981;52.930;9.266;2023-02-11T08:38:34;102691.09;;;7.64;77.21
76201;BME280;64981;52.930;9.266;2023-02-11T08:40:59;102698.78;;;7.68;76.88
76201;BME280;64981;52.930;9.266;2023-02-11T08:43:25;102695.66;;;7.75;76.98
76201;BME280;64981;52.930;9.266;2023-02-11T08:45:51;102691.34;;;7.74;76.95
76201;BME280;64981;52.930;9.266;2023-02-11T08:48:17;102696.31;;;7.79;76.60
76201;BME280;64981;52.930;9.266;2023-02-11T08:50:43;102687.78;;;7.75;76.95
76201;BME280;64981;52.930;9.266;2023-02-11T08:53:10;102687.84;;;7.88;76.48
76201;BME280;64981;52.930;9.266;2023-02-11T08:55:35;102692.00;;;7.78;76.88
76201;BME280;64981;52.930;9.266;2023-02-11T08:58:01;102687.97;;;7.86;76.63
76201;BME280;64981;52.930;9.266;2023-02-11T09:00:27;102698.69;;;7.83;76.78
76201;BME280;64981;52.930;9.266;2023-02-11T09:02:52;102704.28;;;7.91;76.19
76201;BME280;64981;52.930;9.266;2023-02-11T09:05:18;102702.50;;;7.92;76.21
76201;BME280;64981;52.930;9.266;2023-02-11T09:07:43;102706.50;;;8.11;75.71
76201;BME280;64981;52.930;9.266;2023-02-11T09:10:09;102710.06;;;8.10;75.98
76201;BME280;64981;52.930;9.266;2023-02-11T09:12:35;102715.16;;;7.99;76.35
76201;BME280;64981;52.930;9.266;2023-02-11T09:15:00;102721.72;;;8.06;76.20
76201;BME280;64981;52.930;9.266;2023-02-11T09:17:26;102724.22;;;7.95;76.63
76201;BME280;64981;52.930;9.266;2023-02-11T09:19:51;102725.25;;;7.93;76.96
76201;BME280;64981;52.930;9.266;2023-02-11T09:22:17;102721.84;;;7.91;76.92
76201;BME280;64981;52.930;9.266;2023-02-11T09:24:42;102715.63;;;8.06;76.53
76201;BME280;64981;52.930;9.266;2023-02-11T09:27:08;102716.47;;;8.06;76.41
76201;BME280;64981;52.930;9.266;2023-02-11T09:29:34;102712.34;;;8.02;76.73
76201;BME280;64981;52.930;9.266;2023-02-11T09:31:59;102714.03;;;8.03;76.55
76201;BME280;64981;52.930;9.266;2023-02-11T09:34:25;102719.66;;;8.11;76.67
76201;BME280;64981;52.930;9.266;2023-02-11T09:36:50;102725.94;;;8.09;76.69
76201;BME280;64981;52.930;9.266;2023-02-11T09:39:17;102721.00;;;8.31;75.91
76201;BME280;64981;52.930;9.266;2023-02-11T09:42:05;102719.91;;;8.21;76.39
76201;BME280;64981;52.930;9.266;2023-02-11T09:44:34;102721.59;;;8.22;76.34
76201;BME280;64981;52.930;9.266;2023-02-11T09:47:05;102717.03;;;8.11;76.52
76201;BME280;64981;52.930;9.266;2023-02-11T09:49:43;102724.94;;;8.11;76.40
76201;BME280;64981;52.930;9.266;2023-02-11T09:55:22;102738.28;;;8.08;76.95
76201;BME280;64981;52.930;9.266;2023-02-11T09:57:49;102741.28;;;8.16;76.80
76201;BME280;64981;52.930;9.266;2023-02-11T10:00:20;102750.41;;;8.11;76.89
76201;BME280;64981;52.930;9.266;2023-02-11T10:06:06;102754.94;;;8.36;76.21
76201;BME280;64981;52.930;9.266;2023-02-11T10:08:51;102741.81;;;8.22;76.85
76201;BME280;64981;52.930;9.266;2023-02-11T10:17:51;102753.44;;;8.32;76.87
76201;BME280;64981;52.930;9.266;2023-02-11T10:20:36;102752.84;;;8.14;77.21
76201;BME280;64981;52.930;9.266;2023-02-11T10:23:17;102763.44;;;8.27;77.10
76201;BME280;64981;52.930;9.266;2023-02-11T10:25:50;102761.28;;;8.19;77.56
76201;BME280;64981;52.930;9.266;2023-02-11T10:28:21;102760.53;;;8.17;77.50
76201;BME280;64981;52.930;9.266;2023-02-11T10:34:06;102770.56;;;8.39;77.00
76201;BME280;64981;52.930;9.266;2023-02-11T10:36:35;102770.50;;;8.26;77.23
76201;BME280;64981;52.930;9.266;2023-02-11T10:39:22;102773.06;;;8.40;76.87
76201;BME280;64981;52.930;9.266;2023-02-11T10:41:53;102776.22;;;8.33;77.33
76201;BME280;64981;52.930;9.266;2023-02-11T10:44:33;102770.75;;;8.22;77.86
76201;BME280;64981;52.930;9.266;2023-02-11T10:47:08;102768.97;;;8.22;77.71
76201;BME280;64981;52.930;9.266;2023-02-11T10:49:42;102783.06;;;8.21;77.62
76201;BME280;64981;52.930;9.266;2023-02-11T10:52:21;102777.06;;;8.33;77.22
76201;BME280;64981;52.930;9.266;2023-02-11T10:55:14;102770.69;;;8.23;77.70
76201;BME280;64981;52.930;9.266;2023-02-11T10:57:48;102774.50;;;8.32;77.49
76201;BME280;64981;52.930;9.266;2023-02-11T11:00:34;102778.53;;;8.37;77.46
76201;BME280;64981;52.930;9.266;2023-02-11T11:03:04;102784.22;;;8.17;78.33
76201;BME280;64981;52.930;9.266;2023-02-11T11:05:35;102788.41;;;8.34;77.98
76201;BME280;64981;52.930;9.266;2023-02-11T11:08:05;102783.59;;;8.40;77.66
76201;BME280;64981;52.930;9.266;2023-02-11T11:10:41;102792.47;;;8.39;78.13
76201;BME280;64981;52.930;9.266;2023-02-11T11:13:28;102783.53;;;8.42;78.50
76201;BME280;64981;52.930;9.266;2023-02-11T11:16:08;102777.69;;;8.37;78.64
76201;BME280;64981;52.930;9.266;2023-02-11T11:18:34;102778.94;;;8.31;79.02
76201;BME280;64981;52.930;9.266;2023-02-11T11:21:03;102773.84;;;8.28;79.12
76201;BME280;64981;52.930;9.266;2023-02-11T11:23:35;102779.38;;;8.38;78.89
76201;BME280;64981;52.930;9.266;2023-02-11T11:26:09;102773.84;;;8.28;79.18
76201;BME280;64981;52.930;9.266;2023-02-11T11:28:42;102782.06;;;8.50;78.48
76201;BME280;64981;52.930;9.266;2023-02-11T11:31:19;102787.94;;;8.41;78.66
76201;BME280;64981;52.930;9.266;2023-02-11T11:33:47;102781.56;;;8.31;79.28
76201;BME280;64981;52.930;9.266;2023-02-11T11:36:20;102775.63;;;8.42;78.90
76201;BME280;64981;52.930;9.266;2023-02-11T11:38:53;102792.53;;;8.38;79.45
76201;BME280;64981;52.930;9.266;2023-02-11T11:41:26;102790.03;;;8.36;79.55
76201;BME280;64981;52.930;9.266;2023-02-11T11:43:58;102792.25;;;8.42;79.21
76201;BME280;64981;52.930;9.266;2023-02-11T11:46:28;102796.03;;;8.38;79.29
76201;BME280;64981;52.930;9.266;2023-02-11T11:49:02;102808.75;;;8.32;79.70
76201;BME280;64981;52.930;9.266;2023-02-11T11:51:32;102809.38;;;8.35;79.66
76201;BME280;64981;52.930;9.266;2023-02-11T11:54:03;102796.13;;;8.37;79.44
76201;BME280;64981;52.930;9.266;2023-02-11T11:56:34;102805.06;;;8.34;79.74
76201;BME280;64981;52.930;9.266;2023-02-11T11:59:10;102807.53;;;8.23;79.86
76201;BME280;64981;52.930;9.266;2023-02-11T12:02:10;102809.97;;;8.12;80.50
76201;BME280;64981;52.930;9.266;2023-02-11T12:05:00;102807.03;;;8.31;80.18
76201;BME280;64981;52.930;9.266;2023-02-11T12:08:07;102802.88;;;8.41;79.72
76201;BME280;64981;52.930;9.266;2023-02-11T12:13:42;102790.16;;;8.47;79.26
76201;BME280;64981;52.930;9.266;2023-02-11T12:16:33;102800.03;;;8.58;79.01
76201;BME280;64981;52.930;9.266;2023-02-11T12:22:25;102792.53;;;8.52;79.12
76201;BME280;64981;52.930;9.266;2023-02-11T12:28:16;102791.28;;;8.57;78.89
76201;BME280;64981;52.930;9.266;2023-02-11T12:31:05;102796.06;;;8.65;78.21
76201;BME280;64981;52.930;9.266;2023-02-11T12:37:01;102796.50;;;8.45;79.00
76201;BME280;64981;52.930;9.266;2023-02-11T12:39:38;102806.81;;;8.48;79.25
76201;BME280;64981;52.930;9.266;2023-02-11T12:42:35;102801.25;;;8.66;78.33
76201;BME280;64981;52.930;9.266;2023-02-11T12:45:35;102798.88;;;8.62;78.45
76201;BME280;64981;52.930;9.266;2023-02-11T12:54:28;102788.56;;;8.86;77.13
76201;BME280;64981;52.930;9.266;2023-02-11T13:02:48;102768.78;;;8.66;77.93
76201;BME280;64981;52.930;9.266;2023-02-11T13:05:24;102777.25;;;8.71;77.64
76201;BME280;64981;52.930;9.266;2023-02-11T13:10:46;102771.41;;;8.66;77.93
76201;BME280;64981;52.930;9.266;2023-02-11T13:13:27;102775.22;;;8.75;77.81
76201;BME280;64981;52.930;9.266;2023-02-11T13:16:05;102771.13;;;8.56;78.09
76201;BME280;64981;52.930;9.266;2023-02-11T13:18:48;102763.22;;;8.70;77.88
76201;BME280;64981;52.930;9.266;2023-02-11T13:21:30;102766.28;;;8.64;78.25
76201;BME280;64981;52.930;9.266;2023-02-11T13:24:08;102777.19;;;8.85;77.28
76201;BME280;64981;52.930;9.266;2023-02-11T13:26:51;102774.50;;;8.73;77.25
76201;BME280;64981;52.930;9.266;2023-02-11T13:33:03;102787.22;;;8.66;77.67
76201;BME280;64981;52.930;9.266;2023-02-11T13:35:33;102784.97;;;8.60;77.92
76201;BME280;64981;52.930;9.266;2023-02-11T13:38:03;102792.50;;;8.66;77.71
76201;BME280;64981;52.930;9.266;2023-02-11T13:40:35;102787.16;;;8.67;77.66
76201;BME280;64981;52.930;9.266;2023-02-11T13:43:05;102785.69;;;8.76;77.09
76201;BME280;64981;52.930;9.266;2023-02-11T13:45:46;102790.03;;;8.77;77.44
76201;BME280;64981;52.930;9.266;2023-02-11T13:51:15;102794.59;;;9.00;77.15
76201;BME280;64981;52.930;9.266;2023-02-11T13:53:52;102795.22;;;8.91;77.95
76201;BME280;64981;52.930;9.266;2023-02-11T13:56:37;102805.91;;;9.02;77.71
76201;BME280;64981;52.930;9.266;2023-02-11T13:59:43;102810.97;;;9.05;77.32
76201;BME280;64981;52.930;9.266;2023-02-11T14:02:02;102812.72;;;8.92;78.50
76201;BME280;64981;52.930;9.266;2023-02-11T14:08:16;102806.59;;;8.92;78.63
76201;BME280;64981;52.930;9.266;2023-02-11T14:11:06;102822.78;;;8.73;79.77
76201;BME280;64981;52.930;9.266;2023-02-11T14:14:00;102827.31;;;8.71;80.04
76201;BME280;64981;52.930;9.266;2023-02-11T14:16:26;102829.63;;;8.76;79.57
76201;BME280;64981;52.930;9.266;2023-02-11T14:19:00;102844.31;;;8.80;79.90
76201;BME280;64981;52.930;9.266;2023-02-11T14:21:33;102844.94;;;8.83;79.71
76201;BME280;64981;52.930;9.266;2023-02-11T14:27:13;102824.47;;;8.74;80.45
76201;BME280;64981;52.930;9.266;2023-02-11T14:30:00;102832.94;;;8.65;80.92
76201;BME280;64981;52.930;9.266;2023-02-11T14:33:00;102835.00;;;8.60;81.32